createdAt,value
2023-03-06T00:00:00.859Z,68.97
2023-03-06T00:02:13.990Z,69.35
2023-03-06T00:04:27.248Z,69.65
2023-03-06T00:06:40.396Z,68.55
2023-03-06T00:08:53.582Z,69.13
2023-03-06T00:11:06.536Z,69.35
2023-03-06T00:13:21.128Z,69.13
2023-03-06T00:15:35.513Z,68.76
2023-03-06T00:17:48.311Z,68.76
2023-03-06T00:20:02.248Z,69.36
2023-03-06T00:22:19.098Z,69.92
2023-03-06T00:24:32.143Z,70.23
2023-03-06T00:26:48.960Z,68.59
2023-03-06T00:29:02.040Z,68.40
2023-03-06T00:31:15.001Z,68.53
2023-03-06T00:33:27.829Z,68.92
2023-03-06T00:35:41.558Z,68.97
2023-03-06T00:37:54.753Z,69.01
2023-03-06T00:40:13.389Z,68.63
2023-03-06T00:42:26.391Z,68.82
2023-03-06T00:44:39.309Z,69.04
2023-03-06T00:46:52.433Z,68.60
2023-03-06T00:49:05.750Z,68.44
2023-03-06T00:51:21.006Z,68.16
2023-03-06T00:53:34.219Z,67.89
2023-03-06T00:55:49.898Z,67.88
2023-03-06T00:58:03.056Z,68.12
2023-03-06T01:00:18.882Z,67.96
2023-03-06T01:02:32.077Z,67.94
2023-03-06T01:04:46.108Z,67.63
2023-03-06T01:06:59.254Z,67.02
2023-03-06T01:09:12.959Z,66.86
2023-03-06T01:11:26.374Z,67.12
2023-03-06T01:13:40.613Z,67.03
2023-03-06T01:15:53.813Z,66.58
2023-03-06T01:18:07.783Z,66.37
2023-03-06T01:20:24.010Z,66.78
2023-03-06T01:22:37.917Z,67.09
2023-03-06T01:24:52.292Z,67.09
2023-03-06T01:27:07.436Z,67.09
2023-03-06T01:29:20.808Z,67.14
2023-03-06T01:31:34.058Z,67.38
2023-03-06T01:33:46.854Z,67.32
2023-03-06T01:35:59.841Z,67.45
2023-03-06T01:38:13.060Z,67.59
2023-03-06T01:40:27.118Z,67.49
2023-03-06T01:42:40.225Z,67.59
2023-03-06T01:45:31.776Z,67.73
2023-03-06T01:47:46.045Z,67.78
2023-03-06T01:50:00.420Z,68.00
2023-03-06T01:52:18.867Z,68.04
2023-03-06T01:54:36.478Z,68.33
2023-03-06T01:56:52.407Z,68.21
2023-03-06T01:59:06.188Z,67.74
2023-03-06T02:01:21.269Z,68.03
2023-03-06T02:03:35.583Z,68.28
2023-03-06T02:05:52.141Z,68.16
2023-03-06T02:08:06.169Z,68.34
2023-03-06T02:10:20.348Z,68.32
2023-03-06T02:12:33.579Z,68.26
2023-03-06T02:14:47.552Z,68.51
2023-03-06T02:17:00.648Z,69.06
2023-03-06T02:19:23.289Z,69.55
2023-03-06T02:21:39.611Z,70.30
2023-03-06T02:24:05.168Z,70.90
2023-03-06T02:26:18.970Z,72.40
2023-03-06T02:28:31.930Z,72.72
2023-03-06T02:30:46.648Z,72.56
2023-03-06T02:33:00.855Z,72.37
2023-03-06T02:35:26.444Z,72.34
2023-03-06T02:37:39.821Z,72.36
2023-03-06T02:39:56.631Z,72.76
2023-03-06T02:42:09.756Z,72.79
2023-03-06T02:44:22.754Z,72.74
2023-03-06T02:46:36.546Z,72.68
2023-03-06T02:48:49.779Z,72.94
2023-03-06T02:51:03.007Z,72.98
2023-03-06T02:53:17.891Z,73.31
2023-03-06T02:55:31.008Z,73.28
2023-03-06T02:57:43.865Z,73.55
2023-03-06T02:59:56.834Z,73.72
2023-03-06T03:02:10.714Z,74.00
2023-03-06T03:04:23.617Z,74.23
2023-03-06T03:06:37.137Z,74.40
2023-03-06T03:08:50.373Z,74.58
2023-03-06T03:11:04.154Z,74.73
2023-03-06T03:13:23.984Z,75.29
2023-03-06T03:15:37.379Z,75.98
2023-03-06T03:17:50.577Z,75.97
2023-03-06T03:20:04.335Z,76.20
2023-03-06T03:22:18.217Z,76.07
2023-03-06T03:24:31.045Z,76.07
2023-03-06T03:26:44.598Z,76.11
2023-03-06T03:29:05.863Z,75.95
2023-03-06T03:31:19.221Z,75.69
2023-03-06T03:33:32.642Z,75.97
2023-03-06T03:35:46.054Z,76.05
2023-03-06T03:37:58.988Z,76.06
2023-03-06T03:40:14.477Z,76.17
2023-03-06T03:42:27.829Z,76.29
2023-03-06T03:44:40.916Z,76.29
2023-03-06T03:46:55.146Z,76.41
2023-03-06T03:49:09.631Z,76.44
2023-03-06T03:51:23.412Z,76.63
2023-03-06T03:53:39.022Z,76.60
2023-03-06T03:55:52.141Z,76.66
2023-03-06T03:58:05.832Z,76.85
2023-03-06T04:00:21.447Z,77.01
2023-03-06T04:02:54.636Z,77.03
2023-03-06T04:05:18.826Z,77.16
2023-03-06T04:07:32.826Z,77.40
2023-03-06T04:09:46.304Z,77.47
2023-03-06T04:11:59.387Z,77.59
2023-03-06T04:14:13.326Z,77.61
2023-03-06T04:16:26.687Z,77.77
2023-03-06T04:18:39.864Z,77.76
2023-03-06T04:20:54.113Z,77.62
2023-03-06T04:23:07.811Z,77.64
2023-03-06T04:25:24.934Z,77.79
2023-03-06T04:27:37.818Z,77.79
2023-03-06T04:29:51.266Z,77.80
2023-03-06T04:32:04.388Z,77.92
2023-03-06T04:34:17.579Z,77.99
2023-03-06T04:36:36.102Z,78.22
2023-03-06T04:38:55.000Z,78.22
2023-03-06T04:41:08.971Z,78.24
2023-03-06T04:43:23.289Z,78.42
2023-03-06T04:45:38.142Z,78.49
2023-03-06T04:47:51.020Z,78.35
2023-03-06T04:50:04.070Z,78.33
2023-03-06T04:52:17.465Z,78.20
2023-03-06T04:54:30.269Z,78.23
2023-03-06T04:56:43.247Z,78.22
2023-03-06T04:58:56.533Z,77.99
2023-03-06T05:01:09.807Z,78.12
2023-03-06T05:03:23.338Z,78.27
2023-03-06T05:05:36.247Z,78.26
2023-03-06T05:07:49.890Z,78.22
2023-03-06T05:10:03.514Z,78.23
2023-03-06T05:12:16.792Z,78.51
2023-03-06T05:14:32.251Z,78.43
2023-03-06T05:16:45.648Z,78.52
2023-03-06T05:18:58.970Z,78.69
2023-03-06T05:21:12.657Z,78.87
2023-03-06T05:23:26.143Z,78.90
2023-03-06T05:25:38.813Z,78.90
2023-03-06T05:27:51.782Z,78.88
2023-03-06T05:30:05.110Z,78.93
2023-03-06T05:32:21.580Z,79.05
2023-03-06T05:34:35.173Z,79.23
2023-03-06T05:36:48.785Z,79.23
2023-03-06T05:39:02.180Z,79.27
2023-03-06T05:41:17.610Z,79.33
2023-03-06T05:43:30.584Z,79.26
2023-03-06T05:45:44.036Z,79.18
2023-03-06T05:47:57.259Z,79.12
2023-03-06T05:50:11.638Z,79.22
2023-03-06T05:52:24.530Z,79.21
2023-03-06T05:54:38.686Z,79.24
2023-03-06T05:56:52.259Z,79.26
2023-03-06T05:59:05.257Z,79.38
2023-03-06T06:01:19.702Z,79.38
2023-03-06T06:03:32.729Z,79.28
2023-03-06T06:05:47.281Z,79.17
2023-03-06T06:08:00.006Z,79.23
2023-03-06T06:10:15.483Z,79.29
2023-03-06T06:12:28.554Z,79.08
2023-03-06T06:14:41.603Z,79.16
2023-03-06T06:16:55.295Z,79.19
2023-03-06T06:19:08.563Z,79.27
2023-03-06T06:21:21.742Z,79.40
2023-03-06T06:23:34.617Z,79.45
2023-03-06T06:25:47.845Z,79.43
2023-03-06T06:28:02.595Z,79.35
2023-03-06T06:30:17.397Z,79.37
2023-03-06T06:32:30.586Z,79.42
2023-03-06T06:34:43.476Z,79.60
2023-03-06T06:36:57.505Z,79.69
2023-03-06T06:39:11.185Z,79.63
2023-03-06T06:41:42.610Z,79.61
2023-03-06T06:43:59.137Z,79.60
2023-03-06T06:46:47.142Z,79.61
2023-03-06T06:48:42.765Z,79.45
2023-03-06T06:51:01.118Z,79.59
2023-03-06T06:53:14.587Z,79.63
2023-03-06T06:55:28.454Z,79.55
2023-03-06T06:57:41.608Z,79.67
2023-03-06T06:59:54.713Z,79.58
2023-03-06T07:02:07.545Z,79.46
2023-03-06T07:04:20.734Z,79.28
2023-03-06T07:06:34.396Z,79.22
2023-03-06T07:08:47.325Z,79.12
2023-03-06T07:11:03.536Z,79.13
2023-03-06T07:13:16.506Z,79.04
2023-03-06T07:15:31.890Z,79.10
2023-03-06T07:17:44.791Z,78.87
2023-03-06T07:19:57.816Z,78.83
2023-03-06T07:22:10.885Z,79.07
2023-03-06T07:24:23.876Z,78.74
2023-03-06T07:26:36.843Z,78.80
2023-03-06T07:28:54.040Z,78.85
2023-03-06T07:31:10.932Z,78.93
2023-03-06T07:33:24.541Z,79.02
2023-03-06T07:35:37.512Z,78.89
2023-03-06T07:37:50.578Z,78.91
2023-03-06T07:40:03.657Z,78.97
2023-03-06T07:42:17.549Z,78.78
2023-03-06T07:44:39.257Z,78.59
2023-03-06T07:46:52.040Z,78.58
2023-03-06T07:49:05.102Z,78.54
2023-03-06T07:51:22.729Z,78.69
2023-03-06T07:53:36.890Z,78.54
2023-03-06T07:55:50.732Z,78.50
2023-03-06T07:58:04.023Z,78.45
2023-03-06T08:00:19.500Z,78.57
2023-03-06T08:02:32.605Z,78.77
2023-03-06T08:04:45.707Z,78.98
2023-03-06T08:07:00.702Z,79.06
2023-03-06T08:09:14.164Z,79.15
2023-03-06T08:11:28.893Z,79.04
2023-03-06T08:13:43.421Z,79.25
2023-03-06T08:15:57.852Z,79.20
2023-03-06T08:18:11.008Z,79.22
2023-03-06T08:20:25.773Z,79.17
2023-03-06T08:22:40.260Z,79.20
2023-03-06T08:24:57.550Z,79.25
2023-03-06T08:27:11.216Z,79.14
2023-03-06T08:29:24.458Z,78.99
2023-03-06T08:31:38.428Z,79.02
2023-03-06T08:33:51.634Z,79.03
2023-03-06T08:36:04.523Z,79.30
2023-03-06T08:38:17.490Z,79.26
2023-03-06T08:40:31.666Z,79.30
2023-03-06T08:42:45.287Z,79.37
2023-03-06T08:44:58.112Z,79.41
2023-03-06T08:47:11.555Z,79.37
2023-03-06T08:49:25.516Z,79.45
2023-03-06T08:51:39.256Z,79.47
2023-03-06T08:53:52.153Z,79.44
2023-03-06T08:56:05.465Z,79.39
2023-03-06T08:58:18.475Z,79.55
2023-03-06T09:00:31.615Z,79.49
2023-03-06T09:02:45.225Z,79.41
2023-03-06T09:04:58.514Z,79.49
2023-03-06T09:07:11.554Z,79.65
2023-03-06T09:09:24.284Z,79.76
2023-03-06T09:11:40.860Z,79.81
2023-03-06T09:13:54.714Z,79.88
2023-03-06T09:16:07.690Z,79.94
2023-03-06T09:18:20.808Z,80.14
2023-03-06T09:20:34.025Z,80.06
2023-03-06T09:22:46.918Z,79.70
2023-03-06T09:25:00.377Z,79.71
2023-03-06T09:27:13.432Z,79.60
2023-03-06T09:29:26.768Z,79.46
2023-03-06T09:31:39.855Z,79.28
2023-03-06T09:33:53.444Z,79.26
2023-03-06T09:36:09.540Z,79.16
2023-03-06T09:38:22.662Z,79.31
2023-03-06T09:40:49.640Z,79.12
2023-03-06T09:43:02.649Z,79.13
2023-03-06T09:45:17.348Z,79.16
2023-03-06T09:47:52.818Z,79.11
2023-03-06T09:50:15.296Z,78.98
2023-03-06T09:52:34.278Z,79.07
2023-03-06T09:54:49.666Z,79.12
2023-03-06T09:57:02.606Z,79.16
2023-03-06T09:59:21.265Z,79.09
2023-03-06T10:01:38.001Z,79.00
2023-03-06T10:03:56.210Z,78.96
2023-03-06T10:06:16.363Z,78.89
2023-03-06T10:08:33.546Z,78.79
2023-03-06T10:10:52.534Z,78.68
2023-03-06T10:13:17.560Z,78.50
2023-03-06T10:15:34.289Z,78.35
2023-03-06T10:17:49.245Z,78.49
2023-03-06T10:20:02.472Z,78.26
2023-03-06T10:22:26.747Z,78.34
2023-03-06T10:24:57.868Z,78.27
2023-03-06T10:27:24.814Z,78.33
2023-03-06T10:30:02.667Z,78.26
2023-03-06T10:32:34.247Z,78.28
2023-03-06T10:34:53.448Z,78.45
2023-03-06T10:37:17.374Z,78.51
2023-03-06T10:39:30.311Z,78.54
2023-03-06T10:41:44.671Z,78.53
2023-03-06T10:44:24.869Z,78.69
2023-03-06T10:46:39.404Z,78.75
2023-03-06T10:49:04.553Z,78.75
2023-03-06T10:51:22.815Z,79.08
2023-03-06T10:53:36.299Z,79.10
2023-03-06T10:55:57.938Z,79.05
2023-03-06T10:58:26.408Z,79.13
2023-03-06T11:00:40.545Z,78.97
2023-03-06T11:03:07.350Z,79.14
2023-03-06T11:05:26.632Z,79.25
2023-03-06T11:07:40.248Z,79.23
2023-03-06T11:10:08.822Z,79.38
2023-03-06T11:12:33.209Z,79.37
2023-03-06T11:14:46.422Z,79.35
2023-03-06T11:16:59.464Z,79.24
2023-03-06T11:19:27.508Z,79.50
2023-03-06T11:21:42.338Z,79.67
2023-03-06T11:23:57.560Z,79.49
2023-03-06T11:26:24.596Z,79.42
2023-03-06T11:28:41.977Z,79.42
2023-03-06T11:30:59.582Z,79.39
2023-03-06T11:33:22.456Z,79.27
2023-03-06T11:35:42.634Z,79.33
2023-03-06T11:38:00.314Z,79.23
2023-03-06T11:40:24.074Z,79.30
2023-03-06T11:42:41.277Z,79.26
2023-03-06T11:45:11.362Z,79.39
2023-03-06T11:47:27.055Z,79.24
2023-03-06T11:49:47.403Z,79.17
2023-03-06T11:52:06.022Z,79.35
2023-03-06T11:54:19.162Z,79.45
2023-03-06T11:56:44.370Z,79.31
2023-03-06T11:59:37.066Z,79.37
2023-03-06T12:01:58.713Z,79.53
2023-03-06T12:04:34.353Z,79.57
2023-03-06T12:06:55.612Z,79.53
2023-03-06T12:09:27.768Z,79.49
2023-03-06T12:11:49.446Z,79.53
2023-03-06T12:14:15.337Z,79.43
2023-03-06T12:16:48.333Z,79.50
2023-03-06T12:19:16.177Z,79.55
2023-03-06T12:21:40.564Z,79.43
2023-03-06T12:24:05.298Z,79.28
2023-03-06T12:26:42.726Z,79.33
2023-03-06T12:29:10.186Z,79.26
2023-03-06T12:31:49.791Z,79.33
2023-03-06T12:34:16.656Z,79.31
2023-03-06T12:36:40.539Z,79.21
2023-03-06T12:39:21.276Z,79.31
2023-03-06T12:41:57.008Z,79.33
2023-03-06T12:44:34.860Z,79.37
2023-03-06T12:46:51.053Z,79.26
2023-03-06T12:49:15.688Z,79.35
2023-03-06T12:51:35.338Z,79.60
2023-03-06T12:53:50.498Z,79.51
2023-03-06T12:56:05.111Z,79.38
2023-03-06T12:58:50.190Z,79.25
2023-03-06T13:01:13.226Z,79.03
2023-03-06T13:03:31.506Z,79.06
2023-03-06T13:06:18.330Z,79.04
2023-03-06T13:08:56.642Z,78.97
2023-03-06T13:11:31.863Z,78.87
2023-03-06T13:13:51.552Z,78.90
2023-03-06T13:16:25.115Z,78.75
2023-03-06T13:19:04.662Z,78.88
2023-03-06T13:22:01.612Z,78.90
2023-03-06T13:24:27.704Z,78.85
2023-03-06T13:27:07.191Z,79.09
2023-03-06T13:30:03.498Z,79.17
2023-03-06T13:32:33.344Z,79.19
2023-03-06T13:34:48.189Z,79.44
2023-03-06T13:37:37.309Z,79.49
2023-03-06T13:40:19.678Z,79.45
2023-03-06T13:42:36.254Z,79.39
2023-03-06T13:44:53.777Z,79.38
2023-03-06T13:47:09.606Z,79.47
2023-03-06T13:49:28.112Z,79.36
2023-03-06T13:51:43.733Z,79.22
2023-03-06T13:54:22.098Z,79.34
2023-03-06T13:57:11.940Z,79.19
2023-03-06T14:00:06.957Z,79.39
2023-03-06T14:02:43.298Z,79.25
2023-03-06T14:05:02.513Z,79.33
2023-03-06T14:07:27.074Z,79.43
2023-03-06T14:09:45.235Z,79.40
2023-03-06T14:12:01.573Z,79.51
2023-03-06T14:14:17.224Z,79.85
2023-03-06T14:16:40.602Z,79.93
2023-03-06T14:19:02.298Z,79.92
2023-03-06T14:21:18.339Z,79.81
2023-03-06T14:23:39.432Z,79.79
2023-03-06T14:25:57.782Z,79.72
2023-03-06T14:28:28.622Z,79.94
2023-03-06T14:30:51.702Z,79.88
2023-03-06T14:33:13.815Z,79.88
2023-03-06T14:35:32.742Z,79.89
2023-03-06T14:37:46.259Z,79.83
2023-03-06T14:39:59.880Z,79.61
2023-03-06T14:42:20.315Z,79.80
2023-03-06T14:44:33.083Z,79.75
2023-03-06T14:46:46.026Z,79.82
2023-03-06T14:49:02.199Z,79.97
2023-03-06T14:51:21.005Z,79.97
2023-03-06T14:53:37.431Z,80.04
2023-03-06T14:55:54.950Z,80.01
2023-03-06T14:58:14.438Z,80.10
2023-03-06T15:00:31.722Z,80.10
2023-03-06T15:02:44.796Z,79.99
2023-03-06T15:05:01.841Z,79.99
2023-03-06T15:07:18.211Z,79.97
2023-03-06T15:09:33.652Z,79.96
2023-03-06T15:12:01.067Z,79.97
2023-03-06T15:14:24.426Z,79.95
2023-03-06T15:16:38.040Z,80.10
2023-03-06T15:19:02.244Z,80.50
2023-03-06T15:21:22.545Z,80.43
2023-03-06T15:23:44.955Z,80.65
2023-03-06T15:26:03.238Z,80.67
2023-03-06T15:28:40.835Z,80.77
2023-03-06T15:31:08.647Z,80.77
2023-03-06T15:33:29.518Z,80.78
2023-03-06T15:35:43.472Z,80.74
2023-03-06T15:37:56.876Z,80.61
2023-03-06T15:40:21.126Z,80.63
2023-03-06T15:42:37.597Z,80.56
2023-03-06T15:44:54.265Z,80.59
2023-03-06T15:47:09.159Z,80.57
2023-03-06T15:49:24.156Z,80.51
2023-03-06T15:51:38.088Z,80.57
2023-03-06T15:53:53.019Z,80.55
2023-03-06T15:56:07.928Z,80.54
2023-03-06T15:58:24.996Z,80.49
2023-03-06T16:00:40.995Z,80.44
2023-03-06T16:02:54.168Z,80.35
2023-03-06T16:05:13.962Z,80.09
2023-03-06T16:07:28.318Z,80.08
2023-03-06T16:09:41.751Z,80.15
2023-03-06T16:11:55.102Z,80.13
2023-03-06T16:14:08.196Z,80.23
2023-03-06T16:16:28.081Z,80.19
2023-03-06T16:18:40.973Z,79.83
2023-03-06T16:20:54.179Z,80.02
2023-03-06T16:23:11.660Z,80.03
2023-03-06T16:25:26.436Z,79.93
2023-03-06T16:27:39.564Z,79.84
2023-03-06T16:29:52.372Z,79.71
2023-03-06T16:32:05.701Z,79.53
2023-03-06T16:34:20.733Z,79.73
2023-03-06T16:36:33.753Z,79.87
2023-03-06T16:38:46.562Z,79.98
2023-03-06T16:40:59.923Z,79.85
2023-03-06T16:43:14.582Z,79.90
2023-03-06T16:45:28.408Z,79.80
2023-03-06T16:47:41.631Z,79.94
2023-03-06T16:49:59.081Z,80.18
2023-03-06T16:52:13.281Z,80.13
2023-03-06T16:54:27.320Z,80.04
2023-03-06T16:56:40.331Z,79.95
2023-03-06T16:58:54.147Z,80.31
2023-03-06T17:01:07.212Z,80.47
2023-03-06T17:03:20.793Z,80.73
2023-03-06T17:05:35.560Z,80.62
2023-03-06T17:07:48.727Z,80.58
2023-03-06T17:10:03.879Z,80.75
2023-03-06T17:12:18.295Z,80.81
2023-03-06T17:14:31.716Z,81.21
2023-03-06T17:16:46.779Z,81.62
2023-03-06T17:19:03.296Z,81.99
2023-03-06T17:21:18.574Z,81.46
2023-03-06T17:23:32.588Z,81.36
2023-03-06T17:25:45.815Z,80.92
2023-03-06T17:27:58.845Z,80.02
2023-03-06T17:30:15.143Z,79.63
2023-03-06T17:32:28.602Z,79.07
2023-03-06T17:34:41.591Z,78.93
2023-03-06T17:36:54.497Z,79.02
2023-03-06T17:39:08.437Z,78.97
2023-03-06T17:41:25.543Z,78.90
2023-03-06T17:43:38.769Z,79.20
2023-03-06T17:45:52.054Z,79.35
2023-03-06T17:48:05.955Z,79.47
2023-03-06T17:50:19.460Z,79.16
2023-03-06T17:52:33.288Z,79.23
2023-03-06T17:54:47.472Z,79.39
2023-03-06T17:57:03.404Z,79.19
2023-03-06T17:59:17.363Z,79.46
2023-03-06T18:01:31.576Z,79.64
2023-03-06T18:03:46.716Z,79.80
2023-03-06T18:06:10.584Z,80.06
2023-03-06T18:08:23.753Z,80.02
2023-03-06T18:10:37.649Z,80.23
2023-03-06T18:12:51.434Z,80.16
2023-03-06T18:15:05.023Z,80.22
2023-03-06T18:17:18.623Z,80.21
2023-03-06T18:19:34.515Z,80.14
2023-03-06T18:21:49.102Z,80.34
2023-03-06T18:24:03.263Z,80.79
2023-03-06T18:26:18.221Z,81.09
2023-03-06T18:28:31.903Z,81.64
2023-03-06T18:30:45.833Z,81.96
2023-03-06T18:32:58.913Z,82.25
2023-03-06T18:35:12.871Z,82.34
2023-03-06T18:37:26.133Z,82.41
2023-03-06T18:39:38.996Z,82.41
2023-03-06T18:41:52.824Z,82.09
2023-03-06T18:44:06.948Z,82.06
2023-03-06T18:46:19.866Z,82.04
2023-03-06T18:48:32.566Z,81.66
2023-03-06T18:50:45.595Z,81.74
2023-03-06T18:52:58.400Z,81.60
2023-03-06T18:55:12.806Z,80.77
2023-03-06T18:57:25.855Z,81.24
2023-03-06T18:59:38.977Z,80.74
2023-03-06T19:01:58.605Z,80.23
2023-03-06T19:04:12.197Z,79.85
2023-03-06T19:06:27.585Z,80.79
2023-03-06T19:08:41.929Z,81.25
2023-03-06T19:10:54.718Z,80.28
2023-03-06T19:13:07.806Z,80.17
2023-03-06T19:15:21.052Z,79.91
2023-03-06T19:17:34.530Z,79.85
2023-03-06T19:19:47.632Z,79.67
2023-03-06T19:22:03.567Z,78.91
2023-03-06T19:24:16.572Z,79.02
2023-03-06T19:26:29.960Z,78.30
2023-03-06T19:28:44.282Z,78.90
2023-03-06T19:30:58.140Z,78.96
2023-03-06T19:33:11.600Z,79.18
2023-03-06T19:35:25.346Z,79.19
2023-03-06T19:37:38.612Z,79.31
2023-03-06T19:39:51.466Z,79.53
2023-03-06T19:42:05.765Z,79.91
2023-03-06T19:44:19.288Z,80.01
2023-03-06T19:46:33.072Z,80.54
2023-03-06T19:48:46.104Z,80.78
2023-03-06T19:50:59.056Z,81.00
2023-03-06T19:53:12.245Z,80.82
2023-03-06T19:55:29.661Z,81.32
2023-03-06T19:57:42.780Z,81.97
2023-03-06T19:59:58.639Z,82.62
2023-03-06T20:02:13.191Z,82.97
2023-03-06T20:04:26.504Z,83.24
2023-03-06T20:06:40.584Z,83.33
2023-03-06T20:08:54.278Z,82.94
2023-03-06T20:11:08.289Z,82.69
2023-03-06T20:13:21.342Z,82.07
2023-03-06T20:15:36.311Z,82.44
2023-03-06T20:17:49.218Z,82.54
2023-03-06T20:20:02.227Z,83.07
2023-03-06T20:22:14.970Z,83.20
2023-03-06T20:24:28.170Z,82.92
2023-03-06T20:26:41.008Z,82.97
2023-03-06T20:28:53.994Z,82.58
2023-03-06T20:31:12.295Z,82.36
2023-03-06T20:33:27.614Z,82.30
2023-03-06T20:35:43.031Z,82.18
2023-03-06T20:37:56.293Z,82.66
2023-03-06T20:40:11.228Z,82.40
2023-03-06T20:42:24.373Z,82.02
2023-03-06T20:44:37.637Z,81.75
2023-03-06T20:46:50.494Z,81.05
2023-03-06T20:49:04.438Z,80.75
2023-03-06T20:51:21.917Z,79.42
2023-03-06T20:53:35.725Z,79.04
2023-03-06T20:55:50.001Z,79.17
2023-03-06T20:58:03.856Z,79.58
2023-03-06T21:00:19.002Z,79.08
2023-03-06T21:02:33.437Z,78.76
2023-03-06T21:04:46.814Z,79.19
2023-03-06T21:07:00.486Z,79.76
2023-03-06T21:09:13.876Z,79.79
2023-03-06T21:11:26.954Z,80.06
2023-03-06T21:13:40.265Z,80.64
2023-03-06T21:15:53.756Z,80.75
2023-03-06T21:18:07.178Z,79.98
2023-03-06T21:20:20.786Z,80.22
2023-03-06T21:22:34.841Z,80.32
2023-03-06T21:24:47.878Z,79.83
2023-03-06T21:27:00.661Z,79.52
2023-03-06T21:29:13.409Z,79.50
2023-03-06T21:31:28.322Z,79.01
2023-03-06T21:33:41.720Z,78.21
2023-03-06T21:35:54.938Z,77.92
2023-03-06T21:38:08.083Z,77.69
2023-03-06T21:40:25.488Z,76.91
2023-03-06T21:42:39.679Z,76.36
2023-03-06T21:44:52.954Z,76.01
2023-03-06T21:47:05.854Z,76.20
2023-03-06T21:49:19.607Z,76.03
2023-03-06T21:51:33.023Z,75.50
2023-03-06T21:53:47.544Z,76.01
2023-03-06T21:56:02.144Z,75.82
2023-03-06T21:58:14.942Z,75.50
2023-03-06T22:00:28.480Z,75.50
2023-03-06T22:02:41.081Z,75.59
2023-03-06T22:04:57.859Z,75.53
2023-03-06T22:07:11.089Z,75.34
2023-03-06T22:09:23.910Z,75.39
2023-03-06T22:11:38.267Z,75.30
2023-03-06T22:13:52.509Z,75.26
2023-03-06T22:16:05.578Z,75.08
2023-03-06T22:18:18.712Z,74.08
2023-03-06T22:20:32.029Z,73.96
2023-03-06T22:22:45.519Z,74.06
2023-03-06T22:24:58.723Z,73.68
2023-03-06T22:27:11.779Z,74.20
2023-03-06T22:29:25.188Z,74.70
2023-03-06T22:31:40.223Z,74.33
2023-03-06T22:33:56.418Z,73.37
2023-03-06T22:36:11.602Z,73.21
2023-03-06T22:38:24.822Z,73.79
2023-03-06T22:40:38.960Z,73.22
2023-03-06T22:42:52.135Z,72.65
2023-03-06T22:45:04.992Z,72.75
2023-03-06T22:47:17.889Z,72.65
2023-03-06T22:49:31.309Z,72.96
2023-03-06T22:51:45.852Z,73.07
2023-03-06T22:53:59.363Z,72.24
2023-03-06T22:56:14.771Z,72.40
2023-03-06T22:58:28.591Z,73.00
2023-03-06T23:00:42.254Z,72.87
2023-03-06T23:02:55.588Z,71.03
2023-03-06T23:05:09.374Z,71.53
2023-03-06T23:07:23.861Z,71.27
2023-03-06T23:09:46.300Z,71.21
2023-03-06T23:12:17.986Z,70.45
2023-03-06T23:14:52.386Z,69.92
2023-03-06T23:20:11.241Z,69.94
2023-03-06T23:22:42.945Z,69.73
2023-03-06T23:25:15.523Z,69.30
2023-03-06T23:27:30.711Z,68.93
2023-03-06T23:29:44.008Z,68.86
2023-03-06T23:31:57.569Z,67.83
2023-03-06T23:34:12.129Z,68.87
2023-03-06T23:36:25.790Z,69.40
2023-03-06T23:38:39.320Z,68.88
2023-03-06T23:40:52.150Z,69.82
2023-03-06T23:43:05.709Z,69.68
2023-03-06T23:45:19.362Z,69.83
2023-03-06T23:47:34.213Z,69.86
2023-03-06T23:49:47.691Z,70.07
2023-03-06T23:52:00.799Z,69.91
2023-03-06T23:54:15.233Z,69.67
2023-03-06T23:56:29.408Z,69.62
2023-03-06T23:58:42.628Z,70.17
